createdAt,value
2022-09-23T00:02:24.155Z,76.11
2022-09-23T00:04:54.607Z,76.36
2022-09-23T00:07:24.889Z,76.44
2022-09-23T00:09:55.356Z,76.43
2022-09-23T00:12:28.158Z,76.47
2022-09-23T00:15:02.203Z,76.47
2022-09-23T00:17:33.642Z,76.58
2022-09-23T00:20:04.822Z,76.82
2022-09-23T00:22:36.537Z,76.85
2022-09-23T00:25:09.344Z,76.72
2022-09-23T00:27:42.069Z,76.84
2022-09-23T00:30:13.507Z,76.77
2022-09-23T00:32:43.818Z,76.71
2022-09-23T00:35:14.209Z,76.86
2022-09-23T00:37:44.527Z,77.11
2022-09-23T00:40:14.981Z,77.14
2022-09-23T00:42:52.275Z,77.01
2022-09-23T00:45:22.626Z,76.89
2022-09-23T00:47:57.886Z,76.97
2022-09-23T00:50:32.461Z,77.03
2022-09-23T00:53:05.409Z,77.15
2022-09-23T00:55:39.854Z,77.20
2022-09-23T00:58:12.878Z,77.12
2022-09-23T01:00:43.421Z,77.21
2022-09-23T01:03:14.500Z,77.26
2022-09-23T01:05:45.144Z,77.20
2022-09-23T01:08:17.616Z,77.16
2022-09-23T01:10:55.991Z,77.33
2022-09-23T01:13:33.311Z,77.50
2022-09-23T01:16:12.424Z,77.73
2022-09-23T01:18:51.085Z,77.86
2022-09-23T01:21:31.643Z,77.72
2022-09-23T01:24:33.860Z,77.69
2022-09-23T01:27:42.198Z,77.69
2022-09-23T01:30:26.362Z,77.76
2022-09-23T01:33:10.855Z,77.92
2022-09-23T01:36:03.230Z,78.02
2022-09-23T01:38:43.566Z,77.93
2022-09-23T01:41:26.726Z,78.28
2022-09-23T01:44:05.507Z,78.20
2022-09-23T01:46:43.305Z,78.35
2022-09-23T01:49:21.318Z,78.55
2022-09-23T01:51:58.208Z,78.61
2022-09-23T01:54:33.335Z,78.72
2022-09-23T01:57:09.024Z,78.86
2022-09-23T01:59:42.615Z,78.75
2022-09-23T02:02:17.236Z,78.58
2022-09-23T02:04:54.201Z,78.45
2022-09-23T02:07:29.469Z,78.25
2022-09-23T02:10:04.239Z,78.32
2022-09-23T02:12:40.022Z,78.29
2022-09-23T02:15:14.976Z,78.21
2022-09-23T02:17:50.823Z,78.09
2022-09-23T02:20:25.839Z,78.20
2022-09-23T02:23:03.264Z,78.32
2022-09-23T02:25:39.161Z,78.38
2022-09-23T02:28:17.809Z,78.44
2022-09-23T02:30:56.260Z,78.77
2022-09-23T02:33:35.880Z,78.88
2022-09-23T02:36:11.323Z,78.92
2022-09-23T02:38:46.003Z,78.79
2022-09-23T02:41:21.427Z,79.00
2022-09-23T02:43:57.515Z,79.13
2022-09-23T02:46:29.957Z,79.16
2022-09-23T02:49:04.338Z,79.11
2022-09-23T02:51:38.217Z,79.23
2022-09-23T02:54:11.420Z,79.12
2022-09-23T02:56:42.896Z,79.56
2022-09-23T02:59:14.321Z,79.23
2022-09-23T03:01:52.971Z,79.58
2022-09-23T03:04:36.460Z,79.61
2022-09-23T03:07:14.552Z,79.27
2022-09-23T03:09:53.935Z,79.33
2022-09-23T03:12:36.237Z,79.31
2022-09-23T03:15:22.819Z,79.41
2022-09-23T03:18:02.639Z,79.26
2022-09-23T03:20:38.215Z,79.31
2022-09-23T03:23:14.835Z,79.36
2022-09-23T03:25:48.473Z,79.32
2022-09-23T03:28:21.928Z,79.18
2022-09-23T03:30:54.104Z,79.28
2022-09-23T03:33:29.055Z,79.36
2022-09-23T03:36:22.549Z,79.14
2022-09-23T03:39:00.307Z,79.29
2022-09-23T03:41:37.951Z,79.36
2022-09-23T03:44:09.452Z,79.26
2022-09-23T03:46:40.546Z,79.19
2022-09-23T03:49:18.524Z,79.25
2022-09-23T03:51:48.797Z,79.43
2022-09-23T03:54:20.333Z,79.15
2022-09-23T03:56:50.925Z,79.23
2022-09-23T03:59:22.970Z,79.20
2022-09-23T04:01:53.427Z,79.05
2022-09-23T04:04:23.848Z,79.23
2022-09-23T04:06:54.396Z,79.17
2022-09-23T04:09:25.412Z,79.23
2022-09-23T04:11:56.354Z,79.28
2022-09-23T04:14:26.792Z,79.18
2022-09-23T04:16:57.397Z,79.16
2022-09-23T04:19:27.760Z,79.24
2022-09-23T04:21:58.133Z,79.38
2022-09-23T04:24:28.432Z,79.33
2022-09-23T04:26:59.006Z,79.26
2022-09-23T04:29:29.673Z,79.31
2022-09-23T04:32:00.176Z,79.27
2022-09-23T04:34:30.492Z,79.24
2022-09-23T04:37:00.831Z,79.34
2022-09-23T04:39:31.339Z,79.50
2022-09-23T04:42:01.633Z,79.40
2022-09-23T04:44:31.970Z,79.44
2022-09-23T04:47:02.323Z,79.61
2022-09-23T04:49:33.374Z,79.29
2022-09-23T04:52:05.439Z,79.44
2022-09-23T04:54:36.887Z,79.31
2022-09-23T04:57:08.172Z,79.26
2022-09-23T04:59:38.452Z,79.51
2022-09-23T05:02:08.792Z,79.39
2022-09-23T05:04:39.384Z,79.70
2022-09-23T05:07:10.604Z,79.64
2022-09-23T05:09:41.592Z,79.47
2022-09-23T05:12:12.100Z,79.69
2022-09-23T05:14:42.649Z,79.78
2022-09-23T05:17:12.894Z,80.09
2022-09-23T05:19:43.250Z,79.81
2022-09-23T05:22:13.954Z,79.88
2022-09-23T05:24:44.214Z,80.20
2022-09-23T05:27:14.504Z,80.21
2022-09-23T05:29:44.857Z,80.32
2022-09-23T05:32:15.598Z,80.41
2022-09-23T05:34:45.919Z,80.66
2022-09-23T05:37:23.634Z,80.55
2022-09-23T05:39:53.901Z,81.03
2022-09-23T05:42:24.368Z,81.29
2022-09-23T05:44:55.020Z,81.37
2022-09-23T05:47:25.515Z,81.54
2022-09-23T05:50:00.108Z,81.53
2022-09-23T05:52:31.646Z,81.62
2022-09-23T05:55:02.703Z,81.67
2022-09-23T05:57:32.971Z,81.80
2022-09-23T06:00:03.866Z,81.96
2022-09-23T06:02:34.285Z,81.86
2022-09-23T06:05:04.776Z,82.16
2022-09-23T06:07:35.396Z,82.12
2022-09-23T06:10:06.970Z,82.32
2022-09-23T06:12:37.243Z,82.33
2022-09-23T06:15:10.741Z,82.47
2022-09-23T06:17:41.073Z,82.56
2022-09-23T06:20:12.479Z,82.50
2022-09-23T06:22:42.758Z,82.62
2022-09-23T06:25:13.326Z,82.54
2022-09-23T06:27:43.623Z,82.52
2022-09-23T06:30:17.355Z,82.57
2022-09-23T06:32:52.993Z,82.52
2022-09-23T06:35:27.605Z,82.62
2022-09-23T06:37:58.150Z,82.56
2022-09-23T06:40:28.605Z,82.53
2022-09-23T06:43:02.971Z,82.60
2022-09-23T06:45:33.216Z,82.67
2022-09-23T06:48:08.305Z,82.49
2022-09-23T06:50:38.814Z,82.38
2022-09-23T06:53:09.121Z,82.41
2022-09-23T06:55:39.378Z,82.27
2022-09-23T06:58:10.977Z,82.07
2022-09-23T07:00:41.350Z,81.98
2022-09-23T07:03:11.844Z,81.91
2022-09-23T07:05:42.128Z,81.92
2022-09-23T07:08:12.482Z,81.78
2022-09-23T07:10:42.741Z,81.71
2022-09-23T07:13:16.169Z,81.50
2022-09-23T07:15:51.953Z,81.38
2022-09-23T07:18:24.152Z,81.13
2022-09-23T07:20:58.816Z,80.81
2022-09-23T07:23:29.107Z,80.56
2022-09-23T07:26:00.767Z,80.60
2022-09-23T07:28:31.048Z,80.11
2022-09-23T07:31:06.851Z,79.92
2022-09-23T07:33:38.933Z,79.82
2022-09-23T07:36:12.260Z,79.69
2022-09-23T07:38:45.530Z,79.62
2022-09-23T07:41:18.770Z,79.33
2022-09-23T07:43:49.776Z,79.11
2022-09-23T07:46:20.466Z,78.99
2022-09-23T07:48:50.838Z,78.80
2022-09-23T07:51:23.971Z,78.79
2022-09-23T07:53:55.598Z,78.43
2022-09-23T07:56:28.755Z,78.44
2022-09-23T07:59:03.895Z,78.32
2022-09-23T08:01:36.330Z,78.13
2022-09-23T08:04:10.651Z,77.91
2022-09-23T08:06:44.287Z,77.48
2022-09-23T08:09:15.629Z,77.29
2022-09-23T08:11:46.571Z,77.05
2022-09-23T08:14:17.999Z,76.94
2022-09-23T08:16:49.058Z,76.62
2022-09-23T08:19:19.909Z,76.50
2022-09-23T08:21:52.151Z,76.36
2022-09-23T08:24:24.534Z,76.26
2022-09-23T08:26:55.602Z,76.09
2022-09-23T08:29:27.099Z,75.95
2022-09-23T08:31:57.732Z,75.81
2022-09-23T08:34:29.793Z,75.55
2022-09-23T08:37:00.106Z,75.49
2022-09-23T08:39:31.270Z,75.18
2022-09-23T08:42:13.515Z,74.88
2022-09-23T08:44:51.769Z,74.58
2022-09-23T08:47:27.935Z,74.31
2022-09-23T08:50:03.926Z,74.06
2022-09-23T08:52:43.945Z,73.77
2022-09-23T08:55:16.922Z,73.34
2022-09-23T08:58:23.955Z,72.82
2022-09-23T09:01:00.614Z,72.51
2022-09-23T09:03:36.871Z,72.43
2022-09-23T09:06:08.334Z,72.11
2022-09-23T09:11:31.407Z,71.69
2022-09-23T09:14:12.315Z,71.78
2022-09-23T09:16:59.890Z,71.34
2022-09-23T09:19:57.824Z,71.14
2022-09-23T09:22:43.204Z,70.74
2022-09-23T09:25:24.672Z,70.62
2022-09-23T09:27:59.269Z,70.31
2022-09-23T09:30:30.508Z,70.04
2022-09-23T09:33:06.853Z,69.79
2022-09-23T09:35:41.935Z,69.48
2022-09-23T09:38:12.833Z,69.24
2022-09-23T09:40:47.301Z,69.09
2022-09-23T09:43:23.654Z,68.93
2022-09-23T09:46:08.393Z,68.71
2022-09-23T09:48:50.320Z,68.31
2022-09-23T09:51:24.298Z,67.96
2022-09-23T09:53:56.104Z,67.80
2022-09-23T09:56:34.021Z,68.02
2022-09-23T09:59:12.165Z,67.79
2022-09-23T10:01:42.630Z,67.43
2022-09-23T10:04:25.181Z,67.16
2022-09-23T10:07:12.476Z,66.74
2022-09-23T10:09:49.583Z,66.40
2022-09-23T10:12:21.875Z,66.28
2022-09-23T10:14:56.471Z,66.22
2022-09-23T10:17:33.579Z,66.06
2022-09-23T10:20:09.102Z,65.71
2022-09-23T10:22:43.210Z,65.58
2022-09-23T10:25:21.341Z,65.33
2022-09-23T10:27:51.660Z,65.13
2022-09-23T10:30:27.182Z,64.81
2022-09-23T10:32:57.947Z,64.53
2022-09-23T10:35:28.455Z,63.76
2022-09-23T10:38:00.550Z,63.43
2022-09-23T10:40:51.735Z,62.81
2022-09-23T10:44:11.986Z,62.28
2022-09-23T10:46:54.004Z,62.44
2022-09-23T10:49:59.746Z,62.41
2022-09-23T10:52:49.705Z,62.00
2022-09-23T10:55:30.732Z,61.94
2022-09-23T10:58:25.428Z,61.69
2022-09-23T11:01:08.750Z,61.58
2022-09-23T11:04:27.116Z,61.22
2022-09-23T11:07:14.228Z,60.88
2022-09-23T11:10:02.529Z,60.65
2022-09-23T11:12:42.697Z,60.06
2022-09-23T11:15:27.399Z,59.89
2022-09-23T11:18:35.565Z,59.82
2022-09-23T11:21:21.808Z,59.48
2022-09-23T11:24:12.233Z,58.92
2022-09-23T11:26:53.118Z,58.75
2022-09-23T11:29:45.416Z,58.37
2022-09-23T11:32:39.660Z,58.23
2022-09-23T11:35:18.638Z,57.62
2022-09-23T11:37:51.408Z,57.22
2022-09-23T11:40:25.255Z,56.65
2022-09-23T11:43:00.459Z,56.41
2022-09-23T11:45:35.679Z,56.13
2022-09-23T11:48:12.673Z,55.92
2022-09-23T11:50:49.065Z,55.67
2022-09-23T11:53:24.561Z,55.47
2022-09-23T11:56:01.964Z,55.25
2022-09-23T11:58:37.834Z,54.98
2022-09-23T12:01:14.568Z,54.70
2022-09-23T12:03:49.174Z,54.72
2022-09-23T12:06:24.538Z,54.60
2022-09-23T12:09:01.680Z,54.78
2022-09-23T12:11:38.740Z,54.79
2022-09-23T12:14:20.455Z,55.10
2022-09-23T12:17:18.621Z,55.11
2022-09-23T12:20:09.347Z,55.31
2022-09-23T12:22:55.526Z,54.84
2022-09-23T12:25:43.280Z,54.98
2022-09-23T12:28:20.322Z,54.52
2022-09-23T12:30:55.846Z,54.37
2022-09-23T12:33:28.417Z,54.06
2022-09-23T12:36:06.968Z,54.15
2022-09-23T12:38:40.468Z,53.83
2022-09-23T12:41:26.474Z,53.47
2022-09-23T12:44:00.613Z,52.94
2022-09-23T12:46:30.950Z,52.45
2022-09-23T12:49:23.470Z,51.89
2022-09-23T12:52:26.281Z,51.43
2022-09-23T12:55:03.914Z,51.30
2022-09-23T12:57:43.810Z,50.84
2022-09-23T13:00:26.416Z,50.56
2022-09-23T13:03:18.177Z,50.78
2022-09-23T13:06:10.611Z,50.67
2022-09-23T13:08:43.106Z,50.53
2022-09-23T13:11:23.671Z,49.76
2022-09-23T13:13:55.921Z,49.79
2022-09-23T13:16:31.637Z,49.48
2022-09-23T13:19:04.045Z,49.24
2022-09-23T13:22:07.491Z,48.93
2022-09-23T13:24:44.408Z,49.28
2022-09-23T13:27:20.144Z,49.33
2022-09-23T13:29:56.674Z,48.97
2022-09-23T13:32:33.827Z,49.01
2022-09-23T13:35:15.678Z,48.62
2022-09-23T13:37:50.698Z,48.29
2022-09-23T13:40:27.463Z,48.24
2022-09-23T13:43:02.071Z,47.90
2022-09-23T13:45:39.674Z,47.88
2022-09-23T13:48:13.633Z,48.28
2022-09-23T13:50:50.069Z,48.26
2022-09-23T13:53:26.277Z,48.52
2022-09-23T13:56:05.632Z,48.41
2022-09-23T13:58:36.738Z,48.30
2022-09-23T14:01:10.907Z,47.61
2022-09-23T14:03:41.709Z,47.05
2022-09-23T14:06:15.442Z,47.29
2022-09-23T14:08:49.892Z,47.20
2022-09-23T14:11:22.928Z,46.48
2022-09-23T14:13:55.088Z,45.79
2022-09-23T14:16:28.147Z,45.53
2022-09-23T14:19:01.910Z,45.00
2022-09-23T14:21:35.287Z,43.90
2022-09-23T14:24:22.788Z,43.25
2022-09-23T14:26:57.564Z,43.04
2022-09-23T14:29:31.706Z,43.21
2022-09-23T14:32:06.320Z,42.86
2022-09-23T14:34:45.204Z,42.40
2022-09-23T14:37:44.935Z,42.23
2022-09-23T14:40:23.441Z,42.82
2022-09-23T14:43:01.455Z,43.28
2022-09-23T14:45:36.341Z,42.94
2022-09-23T14:48:09.719Z,42.87
2022-09-23T14:50:48.514Z,42.78
2022-09-23T14:53:41.238Z,42.69
2022-09-23T14:56:15.923Z,42.55
2022-09-23T14:58:52.667Z,42.55
2022-09-23T15:01:37.965Z,43.39
2022-09-23T15:04:30.544Z,43.68
2022-09-23T15:07:05.496Z,43.48
2022-09-23T15:09:40.730Z,44.07
2022-09-23T15:12:16.816Z,45.65
2022-09-23T15:14:52.472Z,45.05
2022-09-23T15:17:34.887Z,46.17
2022-09-23T15:20:08.968Z,47.55
2022-09-23T15:22:48.890Z,48.40
2022-09-23T15:25:22.825Z,48.44
2022-09-23T15:28:04.436Z,48.41
2022-09-23T15:30:37.926Z,49.12
2022-09-23T15:33:09.938Z,49.56
2022-09-23T15:35:45.663Z,50.21
2022-09-23T15:38:17.637Z,50.81
2022-09-23T15:40:48.804Z,51.13
2022-09-23T15:43:21.880Z,51.69
2022-09-23T15:45:54.492Z,52.13
2022-09-23T15:48:28.701Z,52.71
2022-09-23T15:51:03.979Z,53.23
2022-09-23T15:53:34.959Z,53.74
2022-09-23T15:56:06.683Z,54.04
2022-09-23T15:58:37.040Z,54.59
2022-09-23T16:01:08.648Z,54.92
2022-09-23T16:03:39.047Z,55.48
2022-09-23T16:06:13.479Z,55.77
2022-09-23T16:08:43.756Z,56.20
2022-09-23T16:11:19.409Z,56.44
2022-09-23T16:13:49.625Z,56.68
2022-09-23T16:16:21.136Z,57.00
2022-09-23T16:18:51.994Z,57.32
2022-09-23T16:21:25.657Z,57.69
2022-09-23T16:23:57.275Z,57.70
2022-09-23T16:26:30.610Z,57.84
2022-09-23T16:29:04.137Z,57.95
2022-09-23T16:31:36.167Z,58.25
2022-09-23T16:34:08.665Z,58.46
2022-09-23T16:36:42.773Z,58.82
2022-09-23T16:39:15.816Z,59.07
2022-09-23T16:41:49.985Z,59.43
2022-09-23T16:44:20.637Z,59.60
2022-09-23T16:46:51.182Z,59.92
2022-09-23T16:49:21.660Z,60.32
2022-09-23T16:51:57.692Z,60.60
2022-09-23T16:54:28.224Z,60.84
2022-09-23T16:56:59.211Z,60.98
2022-09-23T16:59:49.584Z,60.88
2022-09-23T17:02:37.667Z,61.09
2022-09-23T17:05:09.109Z,61.45
2022-09-23T17:07:39.400Z,61.56
2022-09-23T17:10:12.811Z,61.79
2022-09-23T17:12:44.704Z,61.96
2022-09-23T17:15:15.727Z,62.14
2022-09-23T17:17:46.329Z,62.13
2022-09-23T17:20:17.594Z,62.20
2022-09-23T17:22:48.275Z,62.13
2022-09-23T17:25:18.927Z,62.35
2022-09-23T17:27:51.203Z,62.27
2022-09-23T17:30:21.599Z,62.43
2022-09-23T17:32:53.625Z,62.59
2022-09-23T17:35:24.053Z,62.67
2022-09-23T17:37:54.956Z,62.86
2022-09-23T17:40:26.567Z,62.96
2022-09-23T17:42:57.323Z,63.11
2022-09-23T17:45:28.105Z,63.06
2022-09-23T17:48:01.278Z,63.23
2022-09-23T17:50:31.803Z,63.32
2022-09-23T17:53:02.388Z,63.47
2022-09-23T17:55:33.373Z,63.86
2022-09-23T17:58:04.831Z,64.07
2022-09-23T18:00:35.256Z,64.23
2022-09-23T18:03:05.905Z,64.35
2022-09-23T18:05:36.296Z,64.71
2022-09-23T18:08:06.729Z,64.74
2022-09-23T18:10:37.219Z,64.86
2022-09-23T18:13:07.701Z,64.76
2022-09-23T18:15:40.131Z,64.91
2022-09-23T18:18:10.635Z,65.03
2022-09-23T18:20:41.271Z,65.14
2022-09-23T18:23:11.682Z,65.32
2022-09-23T18:25:42.085Z,65.46
2022-09-23T18:28:12.576Z,65.62
2022-09-23T18:30:52.724Z,65.86
2022-09-23T18:33:23.857Z,65.93
2022-09-23T18:35:54.533Z,66.13
2022-09-23T18:38:24.925Z,65.99
2022-09-23T18:40:58.425Z,65.93
2022-09-23T18:43:37.560Z,65.94
2022-09-23T18:46:14.367Z,66.23
2022-09-23T18:49:06.022Z,66.28
2022-09-23T18:51:38.624Z,66.36
2022-09-23T18:54:11.836Z,66.43
2022-09-23T18:56:45.260Z,66.57
2022-09-23T18:59:18.193Z,66.73
2022-09-23T19:01:50.587Z,66.78
2022-09-23T19:04:22.439Z,66.66
2022-09-23T19:06:54.912Z,66.83
2022-09-23T19:09:25.449Z,67.09
2022-09-23T19:11:55.909Z,67.34
2022-09-23T19:14:28.014Z,67.57
2022-09-23T19:16:58.955Z,67.70
2022-09-23T19:19:30.397Z,67.77
2022-09-23T19:22:04.014Z,67.93
2022-09-23T19:24:36.824Z,68.03
2022-09-23T19:27:10.518Z,68.00
2022-09-23T19:29:41.097Z,68.10
2022-09-23T19:32:15.961Z,68.19
2022-09-23T19:34:46.955Z,68.37
2022-09-23T19:37:19.686Z,68.40
2022-09-23T19:39:50.195Z,68.41
2022-09-23T19:42:20.599Z,68.60
2022-09-23T19:44:51.026Z,68.70
2022-09-23T19:47:21.429Z,68.73
2022-09-23T19:49:51.792Z,68.85
2022-09-23T19:52:22.876Z,68.94
2022-09-23T19:54:53.244Z,69.09
2022-09-23T19:57:23.545Z,69.07
2022-09-23T19:59:54.798Z,69.35
2022-09-23T20:02:25.205Z,69.72
2022-09-23T20:04:56.259Z,69.65
2022-09-23T20:07:26.814Z,69.79
2022-09-23T20:09:57.830Z,69.96
2022-09-23T20:12:29.264Z,70.10
2022-09-23T20:15:00.144Z,69.98
2022-09-23T20:17:31.724Z,69.93
2022-09-23T20:20:03.402Z,69.85
2022-09-23T20:22:35.557Z,70.17
2022-09-23T20:25:12.914Z,70.16
2022-09-23T20:27:50.656Z,70.07
2022-09-23T20:30:21.653Z,70.10
2022-09-23T20:32:52.093Z,70.23
2022-09-23T20:35:22.362Z,70.20
2022-09-23T20:37:52.583Z,70.31
2022-09-23T20:40:23.217Z,70.57
2022-09-23T20:42:53.651Z,70.44
2022-09-23T20:45:24.004Z,70.62
2022-09-23T20:47:54.319Z,70.73
2022-09-23T20:50:24.673Z,70.88
2022-09-23T20:52:56.423Z,70.98
2022-09-23T20:55:30.809Z,71.12
2022-09-23T20:58:03.588Z,70.91
2022-09-23T21:00:34.293Z,71.15
2022-09-23T21:03:05.267Z,71.36
2022-09-23T21:05:36.970Z,71.25
2022-09-23T21:08:08.490Z,71.10
2022-09-23T21:10:38.949Z,71.07
2022-09-23T21:13:09.829Z,71.02
2022-09-23T21:15:40.193Z,71.17
2022-09-23T21:18:15.014Z,71.23
2022-09-23T21:20:56.417Z,71.17
2022-09-23T21:23:31.101Z,71.21
2022-09-23T21:26:04.574Z,71.23
2022-09-23T21:28:36.095Z,71.19
2022-09-23T21:31:08.676Z,71.35
2022-09-23T21:33:39.975Z,71.23
2022-09-23T21:36:10.556Z,71.55
2022-09-23T21:38:41.205Z,71.63
2022-09-23T21:41:13.924Z,71.55
2022-09-23T21:43:44.305Z,71.95
2022-09-23T21:46:17.406Z,72.24
2022-09-23T21:48:50.000Z,72.35
2022-09-23T21:51:23.027Z,72.39
2022-09-23T21:53:55.258Z,72.47
2022-09-23T21:56:27.418Z,72.91
2022-09-23T21:58:59.928Z,73.08
2022-09-23T22:01:33.636Z,73.20
2022-09-23T22:04:08.405Z,73.31
2022-09-23T22:06:40.578Z,73.25
2022-09-23T22:09:13.777Z,73.37
2022-09-23T22:12:02.207Z,73.65
2022-09-23T22:14:33.154Z,73.68
2022-09-23T22:17:05.247Z,73.85
2022-09-23T22:19:44.246Z,73.67
2022-09-23T22:22:20.989Z,73.93
2022-09-23T22:24:51.969Z,74.23
2022-09-23T22:27:22.858Z,74.25
2022-09-23T22:30:11.023Z,74.23
2022-09-23T22:32:46.439Z,74.34
2022-09-23T22:35:19.505Z,74.32
2022-09-23T22:37:50.544Z,74.33
2022-09-23T22:40:21.163Z,74.52
2022-09-23T22:42:52.762Z,74.66
2022-09-23T22:45:23.658Z,74.55
2022-09-23T22:47:54.651Z,74.77
2022-09-23T22:50:25.708Z,75.03
2022-09-23T22:52:57.532Z,75.09
2022-09-23T22:55:27.990Z,74.84
2022-09-23T22:58:10.441Z,74.96
2022-09-23T23:00:49.651Z,75.16
2022-09-23T23:03:20.510Z,75.16
2022-09-23T23:05:51.668Z,74.94
2022-09-23T23:08:22.026Z,75.14
2022-09-23T23:10:52.548Z,75.14
2022-09-23T23:13:22.955Z,75.15
2022-09-23T23:15:54.073Z,75.35
2022-09-23T23:18:27.031Z,75.31
2022-09-23T23:21:05.879Z,75.40
2022-09-23T23:23:39.348Z,75.59
2022-09-23T23:26:16.470Z,75.36
2022-09-23T23:28:45.492Z,75.51
2022-09-23T23:31:19.675Z,75.64
2022-09-23T23:33:50.339Z,75.46
2022-09-23T23:36:23.273Z,75.84
2022-09-23T23:38:53.743Z,75.82
2022-09-23T23:41:24.907Z,75.84
2022-09-23T23:46:45.256Z,75.77
2022-09-23T23:49:16.562Z,75.68
2022-09-23T23:51:47.882Z,75.67
2022-09-23T23:54:18.353Z,75.77
2022-09-23T23:56:48.680Z,75.75
2022-09-23T23:59:20.386Z,75.58
